Time;durP1;ratioP1;P1;durP2;ratioP2;P2;SDS_P1;SDS_P2;PMS_P1;PMS_P2;Temp;Humidity;BMP_temperature;BMP_pressure;BME280_temperature;BME280_humidity;BME280_pressure;Samples;Min_cycle;Max_cycle;Signal;HPM_P1;HPM_P2
2021/11/09 00:00:57;;;;;;;;;;;;;;;7.96;78.28;98956.33;1703995;83;24820;-86
2021/11/09 00:03:22;;;;;;;;;;;;;;;7.96;78.32;98962.35;1699853;83;23940;-85
2021/11/09 00:08:37;;;;;;;;;;;;;;;7.96;78.38;98967.56;1688125;84;25270;-86
2021/11/09 00:10:58;;;;;;;;;;;;;;;7.96;78.42;98968.87;1687246;84;20569;-86
2021/11/09 00:13:24;;;;;;;;;;;;;;;7.92;78.47;98963.89;1676878;84;25516;-86
2021/11/09 00:15:52;;;;;;;;;;;;;;;7.89;78.46;98968.81;1677009;84;21997;-86
2021/11/09 00:18:18;;;;;;;;;;;;;;;7.88;78.51;98963.67;1676980;84;26984;-85
2021/11/09 00:20:44;;;;;;;;;;;;;;;7.89;78.54;98966.67;1676744;84;24694;-86
2021/11/09 00:23:11;;;;;;;;;;;;;;;7.86;78.57;98975.47;1677649;84;20235;-86
2021/11/09 00:25:40;;;;;;;;;;;;;;;7.88;78.61;98970.19;1676657;84;24776;-86
2021/11/09 00:28:08;;;;;;;;;;;;;;;7.89;78.69;98970.13;1677066;84;22080;-86
2021/11/09 00:30:36;;;;;;;;;;;;;;;7.92;78.73;98969.11;1675870;84;21279;-86
2021/11/09 00:33:02;;;;;;;;;;;;;;;7.96;78.78;98975.38;1676622;84;24430;-86
2021/11/09 00:35:30;;;;;;;;;;;;;;;7.96;78.81;98972.78;1677133;84;20318;-86
2021/11/09 00:38:00;;;;;;;;;;;;;;;7.98;78.85;98971.41;1676627;84;24212;-86
2021/11/09 00:40:27;;;;;;;;;;;;;;;7.99;78.89;98975.25;1675145;84;21970;-86
2021/11/09 00:42:53;;;;;;;;;;;;;;;8.04;78.93;98980.67;1676941;85;26130;-86
2021/11/09 00:45:22;;;;;;;;;;;;;;;8.04;78.97;98972.41;1676833;84;24434;-86
2021/11/09 00:47:48;;;;;;;;;;;;;;;8.06;79.02;98974.48;1677049;84;20549;-86
2021/11/09 00:50:16;;;;;;;;;;;;;;;8.05;79.01;98981.06;1676810;84;24851;-86
2021/11/09 00:52:42;;;;;;;;;;;;;;;8.04;79.05;98972.86;1676747;84;21952;-86
2021/11/09 00:55:09;;;;;;;;;;;;;;;8.05;79.07;98981.06;1676973;84;25998;-86
2021/11/09 00:57:37;;;;;;;;;;;;;;;7.97;79.09;98969.71;1676056;84;20442;-86
2021/11/09 01:00:06;;;;;;;;;;;;;;;8.02;79.13;98983.84;1676807;84;20191;-87
2021/11/09 01:02:32;;;;;;;;;;;;;;;7.98;79.13;98978.77;1675246;84;24817;-87
2021/11/09 01:04:59;;;;;;;;;;;;;;;7.96;79.15;98987.11;1691625;82;21999;-86
2021/11/09 01:07:25;;;;;;;;;;;;;;;7.91;79.17;98987.80;1697198;83;26230;-86
2021/11/09 01:09:51;;;;;;;;;;;;;;;7.89;79.18;98985.76;1723715;82;24503;-86
2021/11/09 01:12:17;;;;;;;;;;;;;;;7.89;79.21;98990.97;1721320;82;20181;-86
2021/11/09 01:14:45;;;;;;;;;;;;;;;7.86;79.25;98989.80;1722196;82;24765;-86
2021/11/09 01:17:12;;;;;;;;;;;;;;;7.83;79.28;98991.27;1710791;82;21454;-86
2021/11/09 01:19:38;;;;;;;;;;;;;;;7.81;79.32;98996.16;1703467;83;26216;-85
2021/11/09 01:22:05;;;;;;;;;;;;;;;7.78;79.35;98991.11;1703464;83;24398;-86
2021/11/09 01:24:31;;;;;;;;;;;;;;;7.75;79.36;99001.22;1720528;82;20222;-86
2021/11/09 01:26:57;;;;;;;;;;;;;;;7.75;79.39;99004.27;1678087;84;24818;-86
2021/11/09 01:29:24;;;;;;;;;;;;;;;7.71;79.43;99004.05;1705574;83;22036;-86
2021/11/09 01:31:53;;;;;;;;;;;;;;;7.69;79.46;99009.81;1703103;83;25930;-87
2021/11/09 01:34:18;;;;;;;;;;;;;;;7.66;79.53;99008.64;1703561;83;25397;-86
2021/11/09 01:36:48;;;;;;;;;;;;;;;7.63;79.54;99010.11;1701947;83;20246;-87
2021/11/09 01:39:14;;;;;;;;;;;;;;;7.60;79.59;99016.30;1720263;82;24879;-86
2021/11/09 01:41:41;;;;;;;;;;;;;;;7.56;79.64;99018.22;1701369;83;22088;-86
2021/11/09 01:44:07;;;;;;;;;;;;;;;7.53;79.69;99014.44;1723462;82;25997;-86
2021/11/09 01:46:33;;;;;;;;;;;;;;;7.51;79.74;99018.91;1699945;83;24420;-86
2021/11/09 01:48:59;;;;;;;;;;;;;;;7.51;79.78;99024.56;1701748;83;20258;-86
2021/11/09 01:51:26;;;;;;;;;;;;;;;7.48;79.83;99016.88;1721672;82;24785;-86
2021/11/09 01:53:53;;;;;;;;;;;;;;;7.47;79.90;99015.22;1678347;84;22155;-86
2021/11/09 01:56:22;;;;;;;;;;;;;;;7.47;79.96;99023.84;1722484;82;25985;-86
2021/11/09 01:58:48;;;;;;;;;;;;;;;7.48;80.02;99026.84;1684010;83;25721;-87
2021/11/09 02:01:15;;;;;;;;;;;;;;;7.49;80.09;99019.42;1673135;84;20191;-86
2021/11/09 02:03:49;;;;;;;;;;;;;;;7.50;80.15;99021.11;1703776;83;25531;-87
2021/11/09 02:06:16;;;;;;;;;;;;;;;7.50;80.21;99026.78;1713033;83;23244;-87
2021/11/09 02:08:42;;;;;;;;;;;;;;;7.50;80.28;99031.53;1711278;83;26025;-87
2021/11/09 02:11:09;;;;;;;;;;;;;;;7.50;80.33;99030.23;1710156;83;24469;-87
2021/11/09 02:13:35;;;;;;;;;;;;;;;7.54;80.39;99030.91;1712548;83;20225;-87
2021/11/09 02:16:01;;;;;;;;;;;;;;;7.60;80.46;99031.92;1708644;83;24789;-87
2021/11/09 02:18:27;;;;;;;;;;;;;;;7.64;80.52;99026.95;1711085;83;21706;-87
2021/11/09 02:20:57;;;;;;;;;;;;;;;7.66;80.59;99030.33;1711835;83;25934;-87
2021/11/09 02:23:24;;;;;;;;;;;;;;;7.67;80.62;99030.72;1711899;83;24650;-87
2021/11/09 02:25:51;;;;;;;;;;;;;;;7.68;80.68;99030.27;1714384;83;20261;-87
2021/11/09 02:28:18;;;;;;;;;;;;;;;7.70;80.74;99037.07;1714823;83;25643;-87
2021/11/09 02:30:45;;;;;;;;;;;;;;;7.73;80.78;99039.55;1706300;83;22062;-86
2021/11/09 02:33:11;;;;;;;;;;;;;;;7.76;80.80;99041.14;1709930;83;25939;-87
2021/11/09 02:35:38;;;;;;;;;;;;;;;7.74;80.83;99037.33;1707484;83;24505;-87
2021/11/09 02:38:05;;;;;;;;;;;;;;;7.74;80.87;99045.14;1704608;83;20245;-87
2021/11/09 02:40:31;;;;;;;;;;;;;;;7.76;80.91;99046.34;1709580;83;24713;-87
2021/11/09 02:42:58;;;;;;;;;;;;;;;7.77;80.93;99048.05;1708375;83;21975;-87
2021/11/09 02:45:44;;;;;;;;;;;;;;;7.75;80.96;99050.72;1715516;83;20830;-87
2021/11/09 02:48:13;;;;;;;;;;;;;;;7.79;80.96;99054.88;1710681;83;24475;-87
2021/11/09 02:50:36;;;;;;;;;;;;;;;7.82;81.01;99050.81;1711209;83;20235;-87
2021/11/09 02:53:08;;;;;;;;;;;;;;;7.86;81.04;99054.94;1715728;83;24973;-87
2021/11/09 02:55:39;;;;;;;;;;;;;;;7.86;81.06;99059.31;1712755;83;22074;-87
2021/11/09 02:58:42;;;;;;;;;;;;;;;7.85;81.08;99062.86;1710098;83;26928;-87
2021/11/09 03:01:16;;;;;;;;;;;;;;;7.85;81.09;99059.80;1714881;83;24482;-86
2021/11/09 03:08:53;;;;;;;;;;;;;;;7.87;81.16;99067.52;1685450;84;22806;-87
2021/11/09 03:11:15;;;;;;;;;;;;;;;7.85;81.17;99068.92;1687852;84;26113;-87
2021/11/09 03:13:48;;;;;;;;;;;;;;;7.85;81.19;99070.68;1683707;84;24476;-87
2021/11/09 03:16:13;;;;;;;;;;;;;;;7.86;81.20;99069.73;1684739;84;20348;-86
2021/11/09 03:18:45;;;;;;;;;;;;;;;7.84;81.21;99080.70;1681294;84;24754;-87
2021/11/09 03:45:26;;;;;;;;;;;;;;;8.03;81.42;99100.19;1684798;84;25566;-87
2021/11/09 03:47:52;;;;;;;;;;;;;;;8.04;81.45;99105.79;1688957;84;22240;-87
2021/11/09 03:50:23;;;;;;;;;;;;;;;8.09;81.48;99105.11;1684377;84;26383;-87
2021/11/09 03:52:58;;;;;;;;;;;;;;;8.09;81.48;99101.20;1686185;84;25161;-86
2021/11/09 03:55:27;;;;;;;;;;;;;;;8.13;81.50;99110.58;1684168;84;20352;-86
2021/11/09 03:57:54;;;;;;;;;;;;;;;8.15;81.52;99116.54;1682417;84;24762;-86
2021/11/09 04:00:29;;;;;;;;;;;;;;;8.15;81.54;99117.84;1681929;84;22082;-87
2021/11/09 04:02:49;;;;;;;;;;;;;;;8.09;81.53;99116.37;1683872;84;25979;-87
2021/11/09 04:05:12;;;;;;;;;;;;;;;8.08;81.55;99121.66;1686468;84;24312;-86
2021/11/09 04:07:56;;;;;;;;;;;;;;;8.11;81.58;99123.67;1685534;84;20154;-87
2021/11/09 04:10:32;;;;;;;;;;;;;;;8.19;81.59;99131.10;1691603;83;25444;-87
2021/11/09 04:13:00;;;;;;;;;;;;;;;8.24;81.60;99125.20;1693306;83;22137;-87
2021/11/09 04:28:25;;;;;;;;;;;;;;;8.43;81.56;99133.84;1687806;84;26810;-87
2021/11/09 05:08:27;;;;;;;;;;;;;;;7.65;81.38;99165.84;1709015;82;26047;-88
2021/11/09 05:10:56;;;;;;;;;;;;;;;7.58;81.40;99171.34;1715634;82;24011;-88
2021/11/09 05:13:19;;;;;;;;;;;;;;;7.57;81.43;99175.34;1707304;83;20398;-87
2021/11/09 05:15:45;;;;;;;;;;;;;;;7.55;81.48;99174.09;1708616;82;24721;-87
2021/11/09 05:18:12;;;;;;;;;;;;;;;7.53;81.51;99178.98;1709055;82;21969;-87
2021/11/09 05:20:41;;;;;;;;;;;;;;;7.53;81.53;99181.58;1717029;83;26035;-87
2021/11/09 05:23:07;;;;;;;;;;;;;;;7.52;81.57;99180.77;1716413;83;24450;-86
2021/11/09 05:25:33;;;;;;;;;;;;;;;7.53;81.61;99186.33;1709781;83;20225;-86
2021/11/09 05:28:00;;;;;;;;;;;;;;;7.52;81.66;99185.13;1710391;82;25391;-86
2021/11/09 05:30:26;;;;;;;;;;;;;;;7.52;81.70;99192.94;1711327;83;22030;-87
2021/11/09 05:32:54;;;;;;;;;;;;;;;7.50;81.75;99193.00;1698815;83;26288;-86
2021/11/09 05:35:22;;;;;;;;;;;;;;;7.49;81.76;99197.81;1696757;83;24428;-86
2021/11/09 05:37:49;;;;;;;;;;;;;;;7.49;81.81;99199.11;1685634;83;20214;-86
2021/11/09 05:40:18;;;;;;;;;;;;;;;7.48;81.85;99200.02;1713684;82;24831;-86
2021/11/09 05:42:45;;;;;;;;;;;;;;;7.48;81.87;99207.84;1710381;82;21990;-86
2021/11/09 05:45:11;;;;;;;;;;;;;;;7.49;81.95;99212.13;1711453;83;26028;-86
2021/11/09 05:47:37;;;;;;;;;;;;;;;7.48;81.97;99215.65;1708469;82;24375;-86
2021/11/09 05:50:04;;;;;;;;;;;;;;;7.48;82.01;99218.70;1672802;83;20226;-86
2021/11/09 05:52:31;;;;;;;;;;;;;;;7.48;82.04;99226.52;1696029;83;24615;-86
2021/11/09 05:54:58;;;;;;;;;;;;;;;7.46;82.09;99233.58;1695393;83;21751;-87
2021/11/09 05:57:27;;;;;;;;;;;;;;;7.44;82.14;99230.19;1695158;84;27355;-87
2021/11/09 05:59:53;;;;;;;;;;;;;;;7.43;82.16;99240.20;1697280;83;24474;-87
2021/11/09 06:02:21;;;;;;;;;;;;;;;7.43;82.19;99244.11;1685587;83;20272;-86
2021/11/09 06:04:50;;;;;;;;;;;;;;;7.45;82.23;99251.41;1705784;83;24741;-87
2021/11/09 06:07:15;;;;;;;;;;;;;;;7.48;82.27;99257.77;1701997;83;22141;-86
2021/11/09 06:09:41;;;;;;;;;;;;;;;7.52;82.32;99262.80;1703937;83;26197;-87
2021/11/09 06:12:13;;;;;;;;;;;;;;;7.54;82.36;99264.02;1705523;83;24751;-86
2021/11/09 06:14:39;;;;;;;;;;;;;;;7.57;82.42;99273.02;1702481;83;20218;-87
2021/11/09 06:17:05;;;;;;;;;;;;;;;7.58;82.43;99275.53;1704503;83;24759;-87
2021/11/09 06:19:31;;;;;;;;;;;;;;;7.60;82.48;99287.19;1703612;83;21974;-85
2021/11/09 06:21:57;;;;;;;;;;;;;;;7.63;82.49;99288.83;1707108;83;26027;-85
2021/11/09 06:24:29;;;;;;;;;;;;;;;7.62;82.55;99285.37;1704644;83;25297;-85
2021/11/09 06:26:55;;;;;;;;;;;;;;;7.62;82.58;99293.64;1706534;82;20228;-86
2021/11/09 06:29:21;;;;;;;;;;;;;;;7.62;82.61;99299.70;1705603;82;24719;-85
2021/11/09 06:31:49;;;;;;;;;;;;;;;7.65;82.63;99303.46;1710988;82;22193;-85
2021/11/09 06:34:16;;;;;;;;;;;;;;;7.64;82.66;99304.85;1707167;82;26007;-84
2021/11/09 06:36:42;;;;;;;;;;;;;;;7.62;82.65;99311.42;1709013;82;24457;-83
2021/11/09 06:39:08;;;;;;;;;;;;;;;7.59;82.65;99318.05;1712992;83;20334;-87
2021/11/09 06:41:34;;;;;;;;;;;;;;;7.57;82.68;99323.80;1668092;85;24891;-86
2021/11/09 06:44:01;;;;;;;;;;;;;;;7.56;82.70;99332.52;1700967;83;22022;-88
2021/11/09 06:46:32;;;;;;;;;;;;;;;7.56;82.71;99340.34;1699619;84;21336;-85
2021/11/09 06:48:58;;;;;;;;;;;;;;;7.57;82.75;99348.55;1701559;84;24411;-84
2021/11/09 06:51:25;;;;;;;;;;;;;;;7.62;82.78;99347.05;1703513;83;20320;-85
2021/11/09 06:53:51;;;;;;;;;;;;;;;7.66;82.83;99352.05;1702197;84;24744;-86
2021/11/09 06:56:17;;;;;;;;;;;;;;;7.72;82.90;99353.55;1700207;84;22124;-85
2021/11/09 06:58:46;;;;;;;;;;;;;;;7.80;82.96;99361.40;1700081;84;21526;-86
2021/11/09 07:01:13;;;;;;;;;;;;;;;7.91;83.02;99366.14;1700009;84;24415;-86
2021/11/09 07:03:41;;;;;;;;;;;;;;;7.98;83.06;99369.72;1702666;82;20211;-85
2021/11/09 07:06:07;;;;;;;;;;;;;;;8.04;83.11;99379.03;1702712;83;25548;-88
2021/11/09 07:08:33;;;;;;;;;;;;;;;8.07;83.14;99387.19;1701605;84;20932;-85
2021/11/09 07:11:02;;;;;;;;;;;;;;;8.09;83.15;99387.95;1700760;83;26027;-84
2021/11/09 07:13:30;;;;;;;;;;;;;;;8.13;83.17;99396.05;1699365;84;24512;-84
2021/11/09 07:15:56;;;;;;;;;;;;;;;8.15;83.17;99400.26;1701634;84;20278;-84
2021/11/09 07:18:26;;;;;;;;;;;;;;;8.21;83.19;99405.66;1700106;84;24754;-87
2021/11/09 07:20:50;;;;;;;;;;;;;;;8.23;83.20;99404.69;1701504;84;22943;-85
2021/11/09 07:23:16;;;;;;;;;;;;;;;8.24;83.21;99409.41;1699815;84;26220;-85
2021/11/09 07:25:43;;;;;;;;;;;;;;;8.22;83.19;99413.87;1700489;83;24424;-85
2021/11/09 07:28:11;;;;;;;;;;;;;;;8.22;83.20;99422.55;1701338;83;20214;-85
2021/11/09 07:30:53;;;;;;;;;;;;;;;8.21;83.20;99423.45;1703061;83;24728;-85
2021/11/09 07:33:09;;;;;;;;;;;;;;;8.18;83.20;99419.66;1701251;83;21977;-85
2021/11/09 07:35:35;;;;;;;;;;;;;;;8.20;83.20;99428.27;1702493;83;26777;-85
2021/11/09 07:38:02;;;;;;;;;;;;;;;8.22;83.21;99433.43;1699283;83;24421;-84
2021/11/09 07:40:28;;;;;;;;;;;;;;;8.23;83.20;99433.83;1705029;83;20235;-85
2021/11/09 07:42:55;;;;;;;;;;;;;;;8.26;83.22;99428.46;1698890;84;24815;-87
2021/11/09 07:45:21;;;;;;;;;;;;;;;8.28;83.22;99428.80;1701891;83;22023;-86
2021/11/09 07:47:49;;;;;;;;;;;;;;;8.33;83.26;99428.62;1701477;83;25974;-86
2021/11/09 07:50:16;;;;;;;;;;;;;;;8.36;83.29;99434.98;1703140;84;24468;-86
2021/11/09 07:52:44;;;;;;;;;;;;;;;8.41;83.33;99439.53;1699942;83;20183;-86
2021/11/09 07:55:16;;;;;;;;;;;;;;;8.43;83.35;99436.41;1700393;84;24767;-86
2021/11/09 07:57:51;;;;;;;;;;;;;;;8.47;83.36;99438.41;1702409;83;22026;-86
2021/11/09 08:00:22;;;;;;;;;;;;;;;8.52;83.37;99449.03;1701145;83;25986;-86
2021/11/09 08:05:45;;;;;;;;;;;;;;;8.59;83.38;99456.98;1698144;83;20196;-86
2021/11/09 08:08:12;;;;;;;;;;;;;;;8.59;83.40;99463.95;1698985;83;24963;-86
2021/11/09 08:10:33;;;;;;;;;;;;;;;8.65;83.38;99468.90;1699095;83;22727;-87
2021/11/09 08:12:59;;;;;;;;;;;;;;;8.69;83.40;99471.75;1699481;83;26027;-86
2021/11/09 08:15:25;;;;;;;;;;;;;;;8.71;83.42;99474.69;1700866;83;24482;-86
2021/11/09 08:17:51;;;;;;;;;;;;;;;8.78;83.43;99478.69;1701982;84;20226;-86
2021/11/09 08:20:18;;;;;;;;;;;;;;;8.83;83.44;99482.42;1699907;83;24716;-85
2021/11/09 08:22:44;;;;;;;;;;;;;;;8.91;83.44;99485.51;1701387;82;21991;-85
2021/11/09 08:25:10;;;;;;;;;;;;;;;8.97;83.45;99491.76;1702181;83;26820;-86
2021/11/09 08:27:36;;;;;;;;;;;;;;;9.03;83.47;99486.70;1704962;83;24601;-86
2021/11/09 08:30:02;;;;;;;;;;;;;;;9.08;83.50;99493.41;1703985;83;20243;-86
2021/11/09 08:32:28;;;;;;;;;;;;;;;9.13;83.49;99495.34;1698577;83;25003;-86
2021/11/09 08:34:55;;;;;;;;;;;;;;;9.15;83.49;99494.83;1700904;83;21903;-85
2021/11/09 08:37:22;;;;;;;;;;;;;;;9.18;83.47;99495.97;1702439;83;25960;-85
2021/11/09 08:39:48;;;;;;;;;;;;;;;9.20;83.46;99495.45;1700324;83;24469;-85
2021/11/09 08:44:51;;;;;;;;;;;;;;;9.23;83.46;99509.66;1710350;83;24992;-86
2021/11/09 08:47:26;;;;;;;;;;;;;;;9.32;83.41;99508.85;1702902;83;22042;-86
2021/11/09 08:49:51;;;;;;;;;;;;;;;9.40;83.43;99515.84;1699586;83;26052;-86
2021/11/09 08:52:19;;;;;;;;;;;;;;;9.39;83.42;99524.14;1701585;83;24509;-85
2021/11/09 08:54:53;;;;;;;;;;;;;;;9.40;83.37;99517.16;1701703;83;20334;-86
2021/11/09 09:05:13;;;;;;;;;;;;;;;9.37;83.20;99529.07;1702499;84;24451;-86
2021/11/09 09:07:40;;;;;;;;;;;;;;;9.36;83.14;99533.44;1698859;84;20605;-86
2021/11/09 09:10:08;;;;;;;;;;;;;;;9.30;83.07;99531.12;1699457;83;25588;-87
2021/11/09 09:12:35;;;;;;;;;;;;;;;9.25;83.01;99526.57;1701146;83;22001;-86
2021/11/09 09:15:03;;;;;;;;;;;;;;;9.16;82.94;99533.05;1701563;83;26051;-86
2021/11/09 09:17:30;;;;;;;;;;;;;;;9.14;82.84;99535.37;1701455;83;24563;-86
2021/11/09 09:20:06;;;;;;;;;;;;;;;9.14;82.80;99540.13;1701561;83;20295;-86
2021/11/09 09:30:29;;;;;;;;;;;;;;;9.13;82.68;99548.03;1694784;83;24458;-86
2021/11/09 09:55:01;;;;;;;;;;;;;;;9.27;82.58;99590.05;1669580;84;26074;-88
2021/11/09 09:57:13;;;;;;;;;;;;;;;9.30;82.58;99593.81;1694171;83;24413;-87
2021/11/09 09:59:41;;;;;;;;;;;;;;;9.32;82.54;99598.52;1700507;83;20342;-87
2021/11/09 10:02:09;;;;;;;;;;;;;;;9.38;82.52;99600.00;1700541;83;24994;-86
2021/11/09 10:04:37;;;;;;;;;;;;;;;9.38;82.53;99594.77;1700014;83;21961;-87
2021/11/09 10:07:03;;;;;;;;;;;;;;;9.41;82.52;99603.77;1698441;83;26065;-86
2021/11/09 10:09:37;;;;;;;;;;;;;;;9.40;82.49;99600.75;1699077;84;24541;-88
2021/11/09 10:12:20;;;;;;;;;;;;;;;9.39;82.45;99607.74;1700789;83;20216;-86
2021/11/09 10:14:48;;;;;;;;;;;;;;;9.37;82.39;99605.68;1700394;83;24715;-87
2021/11/09 10:17:15;;;;;;;;;;;;;;;9.29;82.32;99602.55;1714112;82;22746;-87
2021/11/09 10:19:43;;;;;;;;;;;;;;;9.38;82.30;99603.42;1683705;83;26063;-87
2021/11/09 10:22:20;;;;;;;;;;;;;;;9.46;82.31;99599.16;1683165;84;24472;-87
2021/11/09 10:24:48;;;;;;;;;;;;;;;9.58;82.30;99597.29;1695759;83;20281;-87
2021/11/09 10:27:14;;;;;;;;;;;;;;;9.73;82.32;99605.70;1712564;82;24807;-87
2021/11/09 10:29:41;;;;;;;;;;;;;;;9.81;82.35;99604.89;1684911;84;21986;-87
2021/11/09 10:32:11;;;;;;;;;;;;;;;9.84;82.36;99604.73;1685012;84;26786;-87
2021/11/09 10:34:37;;;;;;;;;;;;;;;9.90;82.36;99612.74;1685538;83;24624;-86
2021/11/09 10:37:22;;;;;;;;;;;;;;;9.89;82.36;99614.50;1685691;84;20291;-87
2021/11/09 10:39:49;;;;;;;;;;;;;;;9.93;82.33;99619.97;1685617;83;25526;-87
2021/11/09 10:42:20;;;;;;;;;;;;;;;9.93;82.23;99611.27;1685521;84;22743;-87
2021/11/09 10:44:51;;;;;;;;;;;;;;;9.94;82.19;99620.36;1715331;82;26049;-87
2021/11/09 10:47:30;;;;;;;;;;;;;;;10.03;82.13;99623.01;1696297;84;25089;-86
2021/11/09 10:49:58;;;;;;;;;;;;;;;10.05;82.08;99629.84;1695549;84;20449;-86
2021/11/09 10:52:31;;;;;;;;;;;;;;;10.03;82.01;99630.85;1695126;83;24143;-86
2021/11/09 10:54:59;;;;;;;;;;;;;;;10.07;81.96;99629.78;1689825;83;22098;-85
2021/11/09 10:57:29;;;;;;;;;;;;;;;10.10;81.89;99630.92;1716270;83;25906;-87
2021/11/09 11:00:11;;;;;;;;;;;;;;;10.14;81.83;99636.87;1710548;82;24427;-87
2021/11/09 11:05:21;;;;;;;;;;;;;;;10.08;81.72;99642.78;1684264;84;25769;-86
2021/11/09 11:07:51;;;;;;;;;;;;;;;10.10;81.61;99640.08;1683478;84;22050;-86
2021/11/09 11:10:19;;;;;;;;;;;;;;;10.06;81.54;99640.70;1685471;83;26075;-86
2021/11/09 11:12:45;;;;;;;;;;;;;;;10.03;81.44;99648.70;1701264;83;25155;-86
2021/11/09 11:15:11;;;;;;;;;;;;;;;10.10;81.40;99646.61;1721263;82;20924;-86
2021/11/09 11:17:38;;;;;;;;;;;;;;;10.21;81.35;99646.12;1701564;83;24730;-86
2021/11/09 11:20:05;;;;;;;;;;;;;;;10.28;81.32;99644.91;1722405;82;22669;-86
2021/11/09 11:22:32;;;;;;;;;;;;;;;10.27;81.31;99647.13;1701435;83;26036;-86
2021/11/09 11:24:59;;;;;;;;;;;;;;;10.24;81.25;99642.91;1701559;83;24667;-86
2021/11/09 11:27:27;;;;;;;;;;;;;;;10.27;81.19;99641.44;1722996;82;20530;-85
2021/11/09 11:29:53;;;;;;;;;;;;;;;10.22;81.15;99646.05;1701480;83;25567;-86
2021/11/09 11:32:21;;;;;;;;;;;;;;;10.21;81.08;99642.20;1721657;82;21990;-85
2021/11/09 11:34:48;;;;;;;;;;;;;;;10.20;81.03;99638.73;1701516;83;26048;-86
2021/11/09 11:37:15;;;;;;;;;;;;;;;10.19;80.98;99639.68;1723301;82;25269;-86
2021/11/09 11:39:42;;;;;;;;;;;;;;;10.18;80.95;99641.91;1721589;82;20329;-85
2021/11/09 11:42:11;;;;;;;;;;;;;;;10.27;80.91;99645.37;1701157;84;24822;-85
2021/11/09 11:44:38;;;;;;;;;;;;;;;10.30;80.86;99647.85;1720412;82;22141;-85
2021/11/09 11:47:06;;;;;;;;;;;;;;;10.34;80.83;99650.69;1701154;83;26029;-85
2021/11/09 11:49:43;;;;;;;;;;;;;;;10.37;80.78;99660.99;1699751;83;25157;-85
2021/11/09 11:52:13;;;;;;;;;;;;;;;10.42;80.71;99656.38;1700102;84;20226;-85
2021/11/09 11:54:44;;;;;;;;;;;;;;;10.43;80.65;99660.69;1701150;83;24833;-85
2021/11/09 11:57:11;;;;;;;;;;;;;;;10.38;80.59;99653.99;1722591;82;22060;-85
2021/11/09 11:59:38;;;;;;;;;;;;;;;10.42;80.52;99658.14;1701731;83;26059;-85
2021/11/09 12:02:06;;;;;;;;;;;;;;;10.52;80.46;99659.41;1700656;83;25246;-85
2021/11/09 12:04:43;;;;;;;;;;;;;;;10.50;80.39;99658.63;1700298;83;20310;-85
2021/11/09 12:07:19;;;;;;;;;;;;;;;10.36;80.29;99654.55;1711493;82;25443;-85
2021/11/09 12:09:46;;;;;;;;;;;;;;;10.34;80.19;99657.23;1699319;83;22201;-86
2021/11/09 12:12:21;;;;;;;;;;;;;;;10.30;80.11;99649.62;1700889;83;26242;-87
2021/11/09 12:14:48;;;;;;;;;;;;;;;10.36;80.03;99652.78;1700952;83;24545;-86
2021/11/09 12:17:35;;;;;;;;;;;;;;;10.37;79.98;99653.14;1701352;83;20219;-86
2021/11/09 12:20:05;;;;;;;;;;;;;;;10.35;79.92;99651.55;1700971;83;24785;-86
2021/11/09 12:22:45;;;;;;;;;;;;;;;10.36;79.87;99652.78;1701507;83;21981;-86
2021/11/09 12:25:13;;;;;;;;;;;;;;;10.35;79.82;99651.08;1721256;83;26262;-85
2021/11/09 12:27:54;;;;;;;;;;;;;;;10.29;79.75;99654.45;1720425;82;25346;-85
2021/11/09 12:30:34;;;;;;;;;;;;;;;10.20;79.66;99653.13;1700931;83;20261;-86
2021/11/09 12:33:07;;;;;;;;;;;;;;;10.13;79.54;99657.41;1722245;82;24786;-86
2021/11/09 12:35:34;;;;;;;;;;;;;;;10.09;79.45;99661.45;1701497;83;22065;-85
2021/11/09 12:38:02;;;;;;;;;;;;;;;10.04;79.36;99667.83;1701684;83;26860;-85
2021/11/09 12:40:36;;;;;;;;;;;;;;;10.09;79.32;99665.37;1721471;82;24583;-86
2021/11/09 12:43:13;;;;;;;;;;;;;;;10.30;79.29;99661.39;1701009;83;20203;-86
2021/11/09 12:45:43;;;;;;;;;;;;;;;10.31;79.29;99654.75;1699837;83;24790;-86
2021/11/09 12:48:11;;;;;;;;;;;;;;;10.22;79.22;99664.37;1701567;83;21992;-85
2021/11/09 12:50:38;;;;;;;;;;;;;;;10.16;79.13;99665.97;1722498;82;26029;-85
2021/11/09 12:53:08;;;;;;;;;;;;;;;10.14;79.09;99660.41;1701283;83;25388;-85
2021/11/09 12:55:34;;;;;;;;;;;;;;;10.14;79.03;99656.48;1722240;82;20251;-85
2021/11/09 12:58:17;;;;;;;;;;;;;;;10.15;78.97;99660.77;1723276;82;24977;-85
2021/11/09 13:00:50;;;;;;;;;;;;;;;10.20;78.94;99651.81;1702557;83;22765;-85
2021/11/09 13:03:22;;;;;;;;;;;;;;;10.12;78.90;99655.25;1701724;83;26746;-85
2021/11/09 13:05:53;;;;;;;;;;;;;;;10.00;78.80;99658.45;1701317;83;25716;-86
2021/11/09 13:08:26;;;;;;;;;;;;;;;9.94;78.73;99653.05;1694287;83;20218;-85
2021/11/09 13:10:44;;;;;;;;;;;;;;;9.86;78.67;99656.50;1664374;85;25071;-86
2021/11/09 13:13:12;;;;;;;;;;;;;;;9.82;78.59;99654.11;1666242;84;22005;-86
2021/11/09 13:15:38;;;;;;;;;;;;;;;9.87;78.55;99650.81;1662987;85;26024;-85
2021/11/09 13:18:05;;;;;;;;;;;;;;;9.89;78.53;99648.50;1660942;85;20382;-85
2021/11/09 13:23:16;;;;;;;;;;;;;;;9.89;78.51;99659.41;1664869;85;24745;-85
2021/11/09 13:25:50;;;;;;;;;;;;;;;9.86;78.50;99647.81;1669874;85;21991;-85
2021/11/09 13:28:19;;;;;;;;;;;;;;;9.85;78.46;99650.03;1662623;85;25976;-86
2021/11/09 13:30:47;;;;;;;;;;;;;;;9.86;78.43;99655.20;1663504;85;24527;-85
2021/11/09 13:33:15;;;;;;;;;;;;;;;9.87;78.41;99652.13;1668751;85;20217;-85
2021/11/09 13:35:44;;;;;;;;;;;;;;;10.00;78.43;99655.38;1667707;85;26066;-85
2021/11/09 13:38:15;;;;;;;;;;;;;;;10.02;78.46;99652.69;1672820;85;22104;-85
2021/11/09 13:40:42;;;;;;;;;;;;;;;9.96;78.41;99649.91;1666665;85;25960;-85
2021/11/09 13:43:10;;;;;;;;;;;;;;;9.95;78.37;99650.83;1664564;85;24421;-87
2021/11/09 13:45:37;;;;;;;;;;;;;;;9.91;78.30;99656.28;1669922;85;20235;-86
2021/11/09 13:48:10;;;;;;;;;;;;;;;9.91;78.22;99654.52;1662211;85;24792;-84
2021/11/09 13:50:36;;;;;;;;;;;;;;;9.93;78.18;99655.72;1670082;85;22155;-87
2021/11/09 13:53:03;;;;;;;;;;;;;;;9.94;78.18;99658.28;1667928;85;26028;-87
2021/11/09 13:55:30;;;;;;;;;;;;;;;9.93;78.17;99655.27;1671750;85;24489;-87
2021/11/09 13:57:56;;;;;;;;;;;;;;;9.98;78.17;99657.20;1661063;85;20204;-87
2021/11/09 14:00:30;;;;;;;;;;;;;;;9.99;78.18;99648.90;1662164;85;24736;-87
2021/11/09 14:03:07;;;;;;;;;;;;;;;9.90;78.14;99651.96;1662570;85;22063;-87
2021/11/09 14:11:06;;;;;;;;;;;;;;;9.73;78.00;99647.98;1698135;83;20246;-85
2021/11/09 14:16:37;;;;;;;;;;;;;;;9.55;77.94;99644.00;1646596;83;22136;-86
2021/11/09 14:18:26;;;;;;;;;;;;;;;9.47;77.91;99647.44;1692488;83;25993;-85
2021/11/09 14:20:54;;;;;;;;;;;;;;;9.46;77.91;99648.81;1694108;83;24598;-86
2021/11/09 14:23:28;;;;;;;;;;;;;;;9.46;77.91;99649.66;1697380;83;20221;-86
2021/11/09 14:25:54;;;;;;;;;;;;;;;9.52;77.95;99650.69;1703365;83;24828;-85
2021/11/09 14:28:33;;;;;;;;;;;;;;;9.56;78.01;99657.46;1700515;83;21992;-86
2021/11/09 14:31:09;;;;;;;;;;;;;;;9.68;78.12;99653.89;1697586;83;26098;-85
2021/11/09 14:33:37;;;;;;;;;;;;;;;9.67;78.18;99656.96;1707088;83;24422;-86
2021/11/09 14:36:03;;;;;;;;;;;;;;;9.59;78.20;99662.56;1706785;83;20319;-85
2021/11/09 14:38:30;;;;;;;;;;;;;;;9.56;78.20;99662.69;1704708;83;24744;-85
2021/11/09 14:40:59;;;;;;;;;;;;;;;9.58;78.21;99663.48;1696314;83;22001;-85
2021/11/09 14:43:37;;;;;;;;;;;;;;;9.59;78.24;99665.18;1694811;83;25970;-86
2021/11/09 14:46:05;;;;;;;;;;;;;;;9.59;78.26;99664.33;1705108;83;24608;-86
2021/11/09 14:53:44;;;;;;;;;;;;;;;9.68;78.37;99664.34;1705121;83;22749;-85
2021/11/09 14:56:10;;;;;;;;;;;;;;;9.70;78.44;99658.59;1700141;83;27032;-85
2021/11/09 14:58:47;;;;;;;;;;;;;;;9.64;78.46;99650.13;1697426;83;24445;-85
2021/11/09 15:01:15;;;;;;;;;;;;;;;9.60;78.49;99651.66;1692202;83;20320;-85
2021/11/09 15:03:55;;;;;;;;;;;;;;;9.57;78.48;99659.16;1703954;83;25640;-85
2021/11/09 15:09:18;;;;;;;;;;;;;;;9.55;78.49;99668.83;1662257;85;25900;-84
2021/11/09 15:28:18;;;;;;;;;;;;;;;9.54;78.60;99665.00;1641586;86;20600;-85
2021/11/09 15:31:00;;;;;;;;;;;;;;;9.75;78.65;99658.77;1665372;84;24805;-85
2021/11/09 15:33:24;;;;;;;;;;;;;;;9.81;78.67;99665.48;1663915;85;22065;-85
2021/11/09 15:38:23;;;;;;;;;;;;;;;9.51;78.61;99671.20;1665581;85;24394;-85
2021/11/09 15:40:50;;;;;;;;;;;;;;;9.42;78.59;99666.41;1664937;85;20169;-85
2021/11/09 15:43:16;;;;;;;;;;;;;;;9.35;78.56;99662.82;1665206;85;25558;-84
2021/11/09 15:45:42;;;;;;;;;;;;;;;9.27;78.56;99664.48;1665882;84;20897;-84
2021/11/09 15:48:09;;;;;;;;;;;;;;;9.21;78.55;99660.84;1665794;85;20937;-85